Time;durP1;ratioP1;P1;durP2;ratioP2;P2;SDS_P1;SDS_P2;PMS_P1;PMS_P2;Temp;Humidity;BMP_temperature;BMP_pressure;BME280_temperature;BME280_humidity;BME280_pressure;Samples;Min_cycle;Max_cycle;Signal;HPM_P1;HPM_P2
2023/12/27 00:01:15;;;;;;;;;;;;;;;2.94;64.28;95992.56;5017503;28;19996;-64
2023/12/27 00:03:40;;;;;;;;;;;;;;;2.93;64.95;95996.16;5016435;28;20043;-64
2023/12/27 00:06:05;;;;;;;;;;;;;;;2.81;64.90;95988.28;5017023;28;19928;-65
2023/12/27 00:08:31;;;;;;;;;;;;;;;2.82;65.21;95989.94;5017236;28;19960;-63
2023/12/27 00:10:56;;;;;;;;;;;;;;;2.83;64.33;95990.78;5016526;28;20392;-65
2023/12/27 00:13:21;;;;;;;;;;;;;;;2.77;63.01;95992.09;5016803;28;19928;-64
2023/12/27 00:15:47;;;;;;;;;;;;;;;2.73;64.22;95986.22;5010086;28;19921;-65
2023/12/27 00:18:16;;;;;;;;;;;;;;;2.65;65.82;95994.72;5013898;28;19921;-65
2023/12/27 00:20:41;;;;;;;;;;;;;;;2.63;65.79;95987.91;5012140;28;20367;-65
2023/12/27 00:23:07;;;;;;;;;;;;;;;2.61;66.01;95993.28;5016284;28;19928;-64
2023/12/27 00:25:32;;;;;;;;;;;;;;;2.62;65.95;95991.50;5017177;28;19928;-65
2023/12/27 00:27:57;;;;;;;;;;;;;;;2.57;66.41;95978.72;5017067;28;20008;-64
2023/12/27 00:30:23;;;;;;;;;;;;;;;2.58;65.87;95987.44;5016833;28;20003;-64
2023/12/27 00:32:48;;;;;;;;;;;;;;;2.60;65.61;95982.91;5018453;28;20416;-64
2023/12/27 00:35:13;;;;;;;;;;;;;;;2.55;66.30;95980.63;5017662;28;19929;-63
2023/12/27 00:37:38;;;;;;;;;;;;;;;2.48;65.78;95984.66;5017393;28;20070;-64
2023/12/27 00:40:04;;;;;;;;;;;;;;;2.46;65.98;95970.81;5019045;28;19928;-63
2023/12/27 00:42:29;;;;;;;;;;;;;;;2.42;62.97;95974.66;5019288;28;20609;-64
2023/12/27 00:44:55;;;;;;;;;;;;;;;2.40;65.21;95977.38;5015409;28;20411;-64
2023/12/27 00:47:20;;;;;;;;;;;;;;;2.35;65.57;95984.78;5016921;28;19928;-64
2023/12/27 00:49:45;;;;;;;;;;;;;;;2.29;66.19;95987.88;5023845;28;19925;-63
2023/12/27 00:52:11;;;;;;;;;;;;;;;2.22;64.85;95983.06;5014964;28;19947;-64
2023/12/27 00:54:36;;;;;;;;;;;;;;;2.19;63.89;95988.59;5019036;28;20563;-63
2023/12/27 00:57:01;;;;;;;;;;;;;;;2.12;64.28;95987.38;5016890;28;19928;-63
2023/12/27 00:59:26;;;;;;;;;;;;;;;2.08;66.07;95992.00;5020701;28;19925;-63
2023/12/27 01:01:52;;;;;;;;;;;;;;;2.03;66.23;95988.91;5021792;28;19932;-64
2023/12/27 01:04:17;;;;;;;;;;;;;;;1.97;66.37;95982.31;5016077;28;19972;-62
2023/12/27 01:06:42;;;;;;;;;;;;;;;1.87;61.65;95979.53;5012447;28;19925;-62
2023/12/27 01:09:08;;;;;;;;;;;;;;;1.83;65.66;95988.59;5023085;28;20411;-65
2023/12/27 01:11:33;;;;;;;;;;;;;;;1.79;66.03;95981.06;5016328;28;19925;-64
2023/12/27 01:13:58;;;;;;;;;;;;;;;1.74;66.24;95984.03;5015218;28;19921;-64
2023/12/27 01:16:24;;;;;;;;;;;;;;;1.68;67.21;95981.84;5016258;28;19928;-64
2023/12/27 01:18:49;;;;;;;;;;;;;;;1.59;67.41;95973.72;5016208;28;20543;-62
2023/12/27 01:21:14;;;;;;;;;;;;;;;1.53;67.19;95976.78;5009384;28;19925;-64
2023/12/27 01:23:40;;;;;;;;;;;;;;;1.45;67.44;95976.47;5016208;28;19972;-63
2023/12/27 01:26:05;;;;;;;;;;;;;;;1.41;64.33;95972.38;5015802;28;19921;-65
2023/12/27 01:28:30;;;;;;;;;;;;;;;1.33;67.46;95973.78;5016047;28;19951;-63
2023/12/27 01:30:56;;;;;;;;;;;;;;;1.29;68.18;95985.44;5016215;28;19932;-63
2023/12/27 01:33:21;;;;;;;;;;;;;;;1.26;68.21;95985.66;5017898;28;19920;-64
2023/12/27 01:35:46;;;;;;;;;;;;;;;1.23;68.09;95983.28;5016323;28;20691;-62
2023/12/27 01:38:12;;;;;;;;;;;;;;;1.20;66.82;95988.75;5018004;28;19921;-63
2023/12/27 01:40:37;;;;;;;;;;;;;;;1.15;66.75;95994.31;5019451;28;20354;-64
2023/12/27 01:43:02;;;;;;;;;;;;;;;1.16;67.81;96000.41;5017659;28;20523;-65
2023/12/27 01:45:27;;;;;;;;;;;;;;;1.18;68.80;95998.50;5016449;28;19925;-65
2023/12/27 01:47:53;;;;;;;;;;;;;;;1.21;66.77;95998.28;5018789;28;19927;-65
2023/12/27 01:50:18;;;;;;;;;;;;;;;1.28;67.31;95983.78;5016687;28;20083;-65
2023/12/27 01:52:43;;;;;;;;;;;;;;;1.32;68.08;95989.63;5021814;28;19931;-64
2023/12/27 01:55:09;;;;;;;;;;;;;;;1.36;68.21;95991.94;5021831;28;19924;-64
2023/12/27 01:57:35;;;;;;;;;;;;;;;1.41;62.53;95994.22;5022848;28;19916;-64
2023/12/27 02:00:00;;;;;;;;;;;;;;;1.44;67.31;95983.50;5018760;28;19940;-63
2023/12/27 02:02:25;;;;;;;;;;;;;;;1.48;67.21;95990.22;5020395;28;19929;-65
2023/12/27 02:04:51;;;;;;;;;;;;;;;1.48;65.87;95984.13;5021696;28;19921;-65
2023/12/27 02:07:16;;;;;;;;;;;;;;;1.48;64.10;95984.13;5020915;28;20051;-65
2023/12/27 02:09:41;;;;;;;;;;;;;;;1.44;66.87;95978.28;5018318;28;19925;-65
2023/12/27 02:12:06;;;;;;;;;;;;;;;1.45;67.16;95973.84;5019362;28;19917;-64
2023/12/27 02:14:32;;;;;;;;;;;;;;;1.49;65.69;95980.53;5017421;28;19986;-64
2023/12/27 02:16:57;;;;;;;;;;;;;;;1.55;67.38;95988.00;5017659;28;19928;-63
2023/12/27 02:19:22;;;;;;;;;;;;;;;1.48;68.75;95978.88;5016908;28;19921;-64
2023/12/27 02:21:50;;;;;;;;;;;;;;;1.40;66.91;95982.03;5016735;28;19975;-64
2023/12/27 02:24:17;;;;;;;;;;;;;;;1.56;67.64;95979.19;5018405;28;19917;-63
2023/12/27 02:26:42;;;;;;;;;;;;;;;1.62;69.07;95970.88;5017478;28;19965;-64
2023/12/27 02:29:07;;;;;;;;;;;;;;;1.69;69.04;95970.38;5019214;28;19917;-65
2023/12/27 02:31:32;;;;;;;;;;;;;;;1.80;67.95;95967.81;5016041;28;19952;-64
2023/12/27 02:33:58;;;;;;;;;;;;;;;1.86;67.56;95977.03;5018671;28;19952;-65
2023/12/27 02:36:24;;;;;;;;;;;;;;;1.92;67.10;95971.31;5021817;28;19940;-64
2023/12/27 02:38:49;;;;;;;;;;;;;;;1.93;65.19;95969.50;5020134;28;19921;-63
2023/12/27 02:41:14;;;;;;;;;;;;;;;1.98;66.43;95964.78;5019832;28;20422;-65
2023/12/27 02:43:39;;;;;;;;;;;;;;;2.05;67.60;95965.13;5015413;28;19921;-64
2023/12/27 02:46:05;;;;;;;;;;;;;;;2.09;66.42;95966.59;5019404;28;19932;-64
2023/12/27 02:48:30;;;;;;;;;;;;;;;2.14;65.49;95973.16;5020302;28;20523;-64
2023/12/27 02:50:55;;;;;;;;;;;;;;;2.25;66.66;95974.97;5019474;28;20177;-64
2023/12/27 02:53:22;;;;;;;;;;;;;;;2.35;67.21;95974.28;5018287;28;19921;-64
2023/12/27 02:55:48;;;;;;;;;;;;;;;2.39;66.32;95970.47;5019209;28;20378;-65
2023/12/27 02:58:14;;;;;;;;;;;;;;;2.51;66.71;95971.28;5018278;28;19928;-65
2023/12/27 03:00:39;;;;;;;;;;;;;;;2.52;66.43;95963.28;5018917;28;19925;-64
2023/12/27 03:03:05;;;;;;;;;;;;;;;2.60;66.82;95961.88;5024680;28;20495;-64
2023/12/27 03:05:30;;;;;;;;;;;;;;;2.67;67.16;95949.06;5020758;28;19921;-65
2023/12/27 03:07:55;;;;;;;;;;;;;;;2.72;66.95;95949.56;5019575;28;19928;-65
2023/12/27 03:10:20;;;;;;;;;;;;;;;2.75;67.07;95944.88;5019380;28;19925;-65
2023/12/27 03:12:46;;;;;;;;;;;;;;;2.76;66.20;95937.84;5015416;28;20421;-64
2023/12/27 03:15:11;;;;;;;;;;;;;;;2.81;66.34;95940.94;5020754;28;19960;-64
2023/12/27 03:17:36;;;;;;;;;;;;;;;2.84;65.44;95939.84;5022726;28;19921;-64
2023/12/27 03:20:01;;;;;;;;;;;;;;;2.82;65.01;95933.91;5016785;28;19978;-65
2023/12/27 03:22:27;;;;;;;;;;;;;;;2.94;66.85;95929.44;5017477;28;19964;-65
2023/12/27 03:24:52;;;;;;;;;;;;;;;3.00;65.38;95926.34;5017653;28;19978;-64
2023/12/27 03:27:18;;;;;;;;;;;;;;;3.04;65.71;95930.38;5017196;28;19925;-64
2023/12/27 03:29:43;;;;;;;;;;;;;;;3.08;65.88;95930.97;5018783;28;19928;-65
2023/12/27 03:32:08;;;;;;;;;;;;;;;3.13;66.47;95923.56;5018595;28;19925;-65
2023/12/27 03:34:33;;;;;;;;;;;;;;;3.16;66.21;95912.75;5008817;28;19930;-65
2023/12/27 03:36:59;;;;;;;;;;;;;;;3.16;65.61;95918.03;4999120;28;20469;-64
2023/12/27 03:39:24;;;;;;;;;;;;;;;3.12;65.66;95924.50;5000784;28;19921;-64
2023/12/27 03:41:49;;;;;;;;;;;;;;;3.09;65.03;95922.94;5000612;28;20235;-64
2023/12/27 03:44:14;;;;;;;;;;;;;;;3.07;63.66;95917.00;5000166;28;20089;-64
2023/12/27 03:46:40;;;;;;;;;;;;;;;3.12;65.01;95916.59;4999102;28;20136;-65
2023/12/27 03:49:05;;;;;;;;;;;;;;;3.20;65.04;95914.19;5001951;28;20363;-64
2023/12/27 03:51:30;;;;;;;;;;;;;;;3.25;64.08;95913.81;4999349;28;19921;-65
2023/12/27 03:53:55;;;;;;;;;;;;;;;3.31;64.91;95908.06;4997553;28;19925;-64
2023/12/27 03:56:21;;;;;;;;;;;;;;;3.34;64.87;95904.34;5002258;28;19926;-64
2023/12/27 03:58:46;;;;;;;;;;;;;;;3.38;63.21;95911.88;5003044;28;19921;-63
2023/12/27 04:01:11;;;;;;;;;;;;;;;3.40;64.66;95911.72;5000100;28;19968;-63
2023/12/27 04:03:36;;;;;;;;;;;;;;;3.37;65.06;95915.44;4993575;28;19921;-65
2023/12/27 04:06:02;;;;;;;;;;;;;;;3.42;62.34;95913.28;4995510;28;20157;-65
2023/12/27 04:08:27;;;;;;;;;;;;;;;3.55;64.34;95913.13;4997616;28;20515;-65
2023/12/27 04:10:52;;;;;;;;;;;;;;;3.53;65.65;95920.34;4998186;28;20672;-63
2023/12/27 04:13:18;;;;;;;;;;;;;;;3.64;64.73;95911.53;4996565;28;19921;-65
2023/12/27 04:15:43;;;;;;;;;;;;;;;3.68;63.69;95912.97;4997383;28;19959;-64
2023/12/27 04:18:11;;;;;;;;;;;;;;;3.68;60.34;95907.69;5004159;28;20190;-64
2023/12/27 04:20:36;;;;;;;;;;;;;;;3.75;63.10;95908.03;5016312;28;19924;-63
2023/12/27 04:23:02;;;;;;;;;;;;;;;3.79;64.36;95909.44;5015797;28;19927;-64
2023/12/27 04:25:27;;;;;;;;;;;;;;;3.84;63.98;95900.34;5017175;28;19921;-64
2023/12/27 04:27:52;;;;;;;;;;;;;;;3.89;64.25;95893.72;4997825;28;20603;-64
2023/12/27 04:30:18;;;;;;;;;;;;;;;4.04;64.11;95898.63;4997046;28;19948;-65
2023/12/27 04:32:43;;;;;;;;;;;;;;;4.05;63.82;95892.41;4997711;28;20051;-63
2023/12/27 04:35:08;;;;;;;;;;;;;;;4.08;61.28;95884.22;5000597;28;20024;-65
2023/12/27 04:37:33;;;;;;;;;;;;;;;4.14;62.96;95880.25;4997430;28;19924;-65
2023/12/27 04:39:58;;;;;;;;;;;;;;;4.18;63.37;95881.63;4996721;28;19929;-65
2023/12/27 04:42:24;;;;;;;;;;;;;;;4.21;63.41;95876.13;4996674;28;20019;-65
2023/12/27 04:44:49;;;;;;;;;;;;;;;4.28;63.28;95879.91;4996852;28;19979;-65
2023/12/27 04:47:14;;;;;;;;;;;;;;;4.28;63.32;95873.78;4993775;28;19921;-64
2023/12/27 04:49:39;;;;;;;;;;;;;;;4.28;63.46;95887.81;4997039;28;19921;-63
2023/12/27 04:52:05;;;;;;;;;;;;;;;4.32;62.67;95878.66;4997243;28;20529;-65
2023/12/27 04:54:30;;;;;;;;;;;;;;;4.33;61.63;95880.31;4997433;28;19952;-63
2023/12/27 04:56:55;;;;;;;;;;;;;;;4.37;63.12;95878.28;4996888;28;19927;-65
2023/12/27 04:59:21;;;;;;;;;;;;;;;4.36;63.47;95889.81;4997151;28;20159;-65
2023/12/27 05:01:46;;;;;;;;;;;;;;;4.39;63.01;95888.69;4996278;28;19988;-62
2023/12/27 05:04:11;;;;;;;;;;;;;;;4.43;62.36;95884.81;4997207;28;19922;-64
2023/12/27 05:06:37;;;;;;;;;;;;;;;4.44;63.20;95876.78;4997221;28;20468;-64
2023/12/27 05:09:04;;;;;;;;;;;;;;;4.50;62.95;95882.47;4996712;28;19928;-65
2023/12/27 05:11:29;;;;;;;;;;;;;;;4.52;62.88;95870.84;4996453;28;20582;-64
2023/12/27 05:13:54;;;;;;;;;;;;;;;4.59;62.52;95860.56;4996375;28;19922;-63
2023/12/27 05:16:20;;;;;;;;;;;;;;;4.63;62.47;95867.25;4997710;28;19925;-63
2023/12/27 05:18:45;;;;;;;;;;;;;;;4.63;61.98;95863.78;5006675;28;19928;-64
2023/12/27 05:21:11;;;;;;;;;;;;;;;4.64;62.40;95871.56;5015361;28;20471;-63
2023/12/27 05:23:36;;;;;;;;;;;;;;;4.70;62.29;95859.66;5015543;28;20516;-63
2023/12/27 05:26:02;;;;;;;;;;;;;;;4.72;62.14;95852.44;5019062;28;19936;-64
2023/12/27 05:28:27;;;;;;;;;;;;;;;4.73;62.04;95848.81;5020900;28;20016;-65
2023/12/27 05:30:52;;;;;;;;;;;;;;;4.65;62.33;95852.13;5019988;28;19955;-64
2023/12/27 05:33:17;;;;;;;;;;;;;;;4.72;61.80;95847.16;5020802;28;19925;-65
2023/12/27 05:35:43;;;;;;;;;;;;;;;4.73;61.65;95848.00;5020003;28;20067;-65
2023/12/27 05:38:08;;;;;;;;;;;;;;;4.73;60.80;95855.91;5019795;28;19979;-65
2023/12/27 05:40:33;;;;;;;;;;;;;;;4.80;61.88;95863.13;5019621;28;19929;-64
2023/12/27 05:42:58;;;;;;;;;;;;;;;4.77;60.72;95860.78;5020097;28;20002;-63
2023/12/27 05:45:24;;;;;;;;;;;;;;;4.79;61.87;95868.53;5019718;28;19989;-64
2023/12/27 05:47:49;;;;;;;;;;;;;;;4.84;61.10;95869.00;5019950;28;19994;-64
2023/12/27 05:50:14;;;;;;;;;;;;;;;4.89;60.72;95874.69;5019580;28;19921;-63
2023/12/27 05:52:40;;;;;;;;;;;;;;;4.94;61.40;95869.00;5018947;28;19921;-64
2023/12/27 05:55:05;;;;;;;;;;;;;;;4.99;60.77;95882.63;5019541;28;19925;-64
2023/12/27 05:57:31;;;;;;;;;;;;;;;5.02;61.42;95878.88;5018759;28;19951;-65
2023/12/27 05:59:56;;;;;;;;;;;;;;;5.00;61.08;95881.63;5020472;28;20550;-65
2023/12/27 06:02:21;;;;;;;;;;;;;;;5.05;60.90;95883.88;5019564;28;19931;-63
2023/12/27 06:04:46;;;;;;;;;;;;;;;5.06;61.43;95875.00;5019839;28;19917;-65
2023/12/27 06:07:12;;;;;;;;;;;;;;;5.14;61.29;95861.16;5019291;28;20557;-65
2023/12/27 06:09:37;;;;;;;;;;;;;;;5.16;60.80;95859.19;5019115;28;19966;-64
2023/12/27 06:12:02;;;;;;;;;;;;;;;5.16;60.97;95854.75;5018317;28;20414;-64
2023/12/27 06:14:28;;;;;;;;;;;;;;;5.14;61.17;95856.69;5018845;28;19921;-64
2023/12/27 06:16:53;;;;;;;;;;;;;;;5.25;60.26;95863.66;5019249;28;19936;-63
2023/12/27 06:19:18;;;;;;;;;;;;;;;5.26;59.94;95859.19;5019277;28;19922;-63
2023/12/27 06:21:43;;;;;;;;;;;;;;;5.24;60.55;95858.50;5017090;28;19932;-64
2023/12/27 06:24:09;;;;;;;;;;;;;;;5.24;60.66;95851.44;5019649;28;20513;-64
2023/12/27 06:26:34;;;;;;;;;;;;;;;5.32;59.72;95856.00;5017933;28;19932;-64
2023/12/27 06:28:59;;;;;;;;;;;;;;;5.25;60.61;95857.53;5018961;28;20055;-65
2023/12/27 06:31:24;;;;;;;;;;;;;;;5.22;60.26;95846.28;5018690;28;20215;-65
2023/12/27 06:33:50;;;;;;;;;;;;;;;5.23;60.14;95855.03;5019297;28;19947;-65
2023/12/27 06:36:15;;;;;;;;;;;;;;;5.33;59.82;95847.94;5018495;28;19929;-64
2023/12/27 06:38:40;;;;;;;;;;;;;;;5.31;59.58;95851.72;5018633;28;19921;-64
2023/12/27 06:41:07;;;;;;;;;;;;;;;5.31;60.59;95854.34;5018709;28;20014;-64
2023/12/27 06:43:32;;;;;;;;;;;;;;;5.40;59.16;95850.88;5018218;28;19948;-65
2023/12/27 06:45:57;;;;;;;;;;;;;;;5.40;60.04;95850.88;5018695;28;19932;-65
2023/12/27 06:48:22;;;;;;;;;;;;;;;5.45;59.61;95858.38;5019418;28;19924;-64
2023/12/27 06:50:48;;;;;;;;;;;;;;;5.45;59.26;95853.09;5018524;28;20317;-64
2023/12/27 06:53:13;;;;;;;;;;;;;;;5.42;59.50;95862.13;5018218;28;19951;-65
2023/12/27 06:55:38;;;;;;;;;;;;;;;5.47;59.44;95857.25;5018070;28;19940;-64
2023/12/27 06:58:04;;;;;;;;;;;;;;;5.33;59.73;95853.22;5017147;28;20056;-64
2023/12/27 07:00:29;;;;;;;;;;;;;;;5.07;55.28;95855.59;5018994;28;20505;-64
2023/12/27 07:02:54;;;;;;;;;;;;;;;5.18;58.70;95852.81;5018263;28;20397;-66
2023/12/27 07:05:20;;;;;;;;;;;;;;;5.19;59.73;95849.19;5017346;28;19924;-64
2023/12/27 07:07:46;;;;;;;;;;;;;;;5.31;58.33;95846.44;5012858;28;20322;-65
2023/12/27 07:10:11;;;;;;;;;;;;;;;5.21;58.43;95843.78;5015513;28;19987;-64
2023/12/27 07:12:36;;;;;;;;;;;;;;;5.11;58.62;95845.56;5018081;28;20449;-65
2023/12/27 07:15:02;;;;;;;;;;;;;;;5.08;59.45;95847.53;5017312;28;19949;-64
2023/12/27 07:17:27;;;;;;;;;;;;;;;5.03;60.34;95843.59;5018439;28;19960;-65
2023/12/27 07:19:53;;;;;;;;;;;;;;;5.17;58.95;95848.50;5018093;28;20386;-65
2023/12/27 07:22:18;;;;;;;;;;;;;;;5.14;57.81;95846.13;5016006;28;19936;-65
2023/12/27 07:24:43;;;;;;;;;;;;;;;5.22;59.25;95848.09;5016040;28;20541;-64
2023/12/27 07:27:09;;;;;;;;;;;;;;;5.20;59.11;95842.94;5017954;28;19928;-65
2023/12/27 07:29:36;;;;;;;;;;;;;;;5.02;59.08;95832.22;5017695;28;19921;-65
2023/12/27 07:32:02;;;;;;;;;;;;;;;5.10;58.58;95834.19;5018250;28;19917;-63
2023/12/27 07:34:27;;;;;;;;;;;;;;;5.06;59.79;95831.00;5017490;28;20547;-65
2023/12/27 07:36:53;;;;;;;;;;;;;;;4.64;58.73;95839.09;5018233;28;20409;-64
2023/12/27 07:39:19;;;;;;;;;;;;;;;4.91;60.22;95825.25;5017183;28;19925;-64
2023/12/27 07:41:44;;;;;;;;;;;;;;;4.89;60.12;95824.56;5017159;28;19932;-64
2023/12/27 07:44:12;;;;;;;;;;;;;;;4.97;59.68;95803.59;5017137;28;20149;-66
2023/12/27 07:46:37;;;;;;;;;;;;;;;5.07;59.09;95794.88;5017150;28;20321;-64
2023/12/27 07:49:02;;;;;;;;;;;;;;;4.88;58.17;95804.41;5017825;28;19921;-65
2023/12/27 07:51:27;;;;;;;;;;;;;;;4.97;60.11;95806.22;5017661;28;19917;-64
2023/12/27 07:53:53;;;;;;;;;;;;;;;5.08;59.52;95802.66;5016002;28;19924;-64
2023/12/27 07:56:18;;;;;;;;;;;;;;;5.12;59.45;95805.00;5017612;28;20390;-64
2023/12/27 07:58:44;;;;;;;;;;;;;;;5.23;59.11;95794.31;5016886;28;20023;-64
2023/12/27 08:01:09;;;;;;;;;;;;;;;5.14;58.95;95792.53;5017610;28;19964;-64
2023/12/27 08:03:34;;;;;;;;;;;;;;;5.08;58.86;95804.47;5017480;28;20445;-65
2023/12/27 08:05:59;;;;;;;;;;;;;;;5.03;59.51;95801.38;5017073;28;19932;-64
2023/12/27 08:08:25;;;;;;;;;;;;;;;5.14;58.90;95797.78;5017169;28;19921;-63
2023/12/27 08:10:50;;;;;;;;;;;;;;;5.14;59.58;95792.53;5017025;28;19928;-65
2023/12/27 08:13:15;;;;;;;;;;;;;;;5.17;58.41;95795.69;5016512;28;19925;-64
2023/12/27 08:15:40;;;;;;;;;;;;;;;5.25;58.96;95788.88;5015761;28;19928;-64
2023/12/27 08:18:06;;;;;;;;;;;;;;;5.07;59.50;95781.69;5015969;28;20039;-65
2023/12/27 08:20:31;;;;;;;;;;;;;;;5.06;58.97;95772.09;5013751;28;20409;-64
2023/12/27 08:22:58;;;;;;;;;;;;;;;5.04;59.22;95776.66;5016989;28;19921;-65
2023/12/27 08:25:24;;;;;;;;;;;;;;;5.04;59.34;95776.66;5016779;28;19963;-66
2023/12/27 08:27:49;;;;;;;;;;;;;;;5.30;58.34;95782.22;5016218;28;20611;-65
2023/12/27 08:30:14;;;;;;;;;;;;;;;5.37;58.04;95790.41;5016860;28;20381;-64
2023/12/27 08:32:40;;;;;;;;;;;;;;;5.42;58.40;95790.00;5016895;28;19925;-64
2023/12/27 08:35:05;;;;;;;;;;;;;;;5.35;56.55;95782.63;5016283;28;19929;-65
2023/12/27 08:37:30;;;;;;;;;;;;;;;5.31;57.40;95783.06;5016588;28;19932;-65
2023/12/27 08:39:55;;;;;;;;;;;;;;;5.24;58.55;95796.00;5014967;28;19987;-64
2023/12/27 08:42:21;;;;;;;;;;;;;;;5.20;57.93;95803.34;5016110;28;19996;-64
2023/12/27 08:44:46;;;;;;;;;;;;;;;5.20;59.08;95799.88;5017075;28;20074;-64
2023/12/27 08:47:11;;;;;;;;;;;;;;;5.37;57.55;95798.31;5016967;28;19921;-65
2023/12/27 08:49:37;;;;;;;;;;;;;;;5.20;57.18;95792.78;5014499;28;19921;-64
2023/12/27 08:52:02;;;;;;;;;;;;;;;5.07;58.79;95797.53;5016228;28;19945;-64
2023/12/27 08:54:28;;;;;;;;;;;;;;;5.13;59.36;95794.31;5010681;28;20008;-65
2023/12/27 08:56:53;;;;;;;;;;;;;;;5.31;58.74;95793.63;5015236;28;20321;-64
2023/12/27 08:59:18;;;;;;;;;;;;;;;5.13;58.71;95778.47;5018483;28;19979;-65
2023/12/27 09:01:43;;;;;;;;;;;;;;;5.18;58.36;95778.91;5013248;28;19929;-62
2023/12/27 09:04:09;;;;;;;;;;;;;;;5.07;58.53;95786.97;5019250;28;20081;-61
2023/12/27 09:06:34;;;;;;;;;;;;;;;5.28;58.04;95788.63;5021644;28;20417;-63
2023/12/27 09:08:59;;;;;;;;;;;;;;;5.21;59.04;95799.72;5025045;28;19929;-63
2023/12/27 09:11:24;;;;;;;;;;;;;;;5.08;59.49;95793.91;5027763;28;19932;-62
2023/12/27 09:13:50;;;;;;;;;;;;;;;5.10;58.65;95797.22;5025180;28;20393;-62
2023/12/27 09:16:15;;;;;;;;;;;;;;;5.03;59.64;95796.09;5028691;28;19990;-63
2023/12/27 09:18:40;;;;;;;;;;;;;;;5.16;59.36;95790.56;5026542;28;20646;-64
2023/12/27 09:21:06;;;;;;;;;;;;;;;5.31;59.30;95783.06;5028188;28;20020;-62
2023/12/27 09:23:31;;;;;;;;;;;;;;;5.22;59.53;95782.09;5023941;28;20498;-63
2023/12/27 09:25:56;;;;;;;;;;;;;;;5.17;58.45;95777.22;5025238;28;19921;-62
2023/12/27 09:28:25;;;;;;;;;;;;;;;5.20;59.54;95761.09;5025609;28;20019;-62
2023/12/27 09:30:50;;;;;;;;;;;;;;;5.33;58.52;95752.91;5026551;28;19924;-63
2023/12/27 09:33:15;;;;;;;;;;;;;;;5.35;59.53;95750.13;5028095;28;19932;-64
2023/12/27 09:35:41;;;;;;;;;;;;;;;5.46;58.84;95759.69;5025002;28;19958;-64
2023/12/27 09:38:06;;;;;;;;;;;;;;;5.52;58.73;95768.84;5024813;28;19937;-65
2023/12/27 09:40:31;;;;;;;;;;;;;;;5.36;58.73;95754.41;5025587;28;19925;-64
2023/12/27 09:42:57;;;;;;;;;;;;;;;5.37;56.92;95748.16;5026089;28;19925;-64
2023/12/27 09:45:22;;;;;;;;;;;;;;;5.27;58.84;95742.91;5026023;28;20450;-66
2023/12/27 09:47:48;;;;;;;;;;;;;;;3.70;63.14;95738.22;5022859;28;20019;-64
2023/12/27 09:50:13;;;;;;;;;;;;;;;4.64;61.12;95739.72;5022107;28;20067;-64
2023/12/27 09:52:38;;;;;;;;;;;;;;;3.90;62.52;95733.84;5021742;28;19925;-65
2023/12/27 09:55:04;;;;;;;;;;;;;;;4.23;61.62;95728.38;5024644;28;19963;-64
2023/12/27 09:57:29;;;;;;;;;;;;;;;3.70;63.68;95735.59;5026921;28;19932;-65
2023/12/27 09:59:54;;;;;;;;;;;;;;;4.52;62.01;95725.00;5025087;28;19940;-63
2023/12/27 10:02:20;;;;;;;;;;;;;;;4.50;62.05;95722.50;5026037;28;19929;-65
2023/12/27 10:04:45;;;;;;;;;;;;;;;5.08;60.73;95720.00;5021447;28;20457;-64
2023/12/27 10:07:10;;;;;;;;;;;;;;;5.12;60.05;95718.75;5026788;28;19932;-65
2023/12/27 10:09:36;;;;;;;;;;;;;;;5.17;60.01;95720.97;5022586;28;19921;-64
2023/12/27 10:12:01;;;;;;;;;;;;;;;5.37;59.68;95713.03;5023188;28;19928;-64
2023/12/27 10:14:26;;;;;;;;;;;;;;;4.97;60.19;95711.22;5024082;28;19924;-63
2023/12/27 10:16:51;;;;;;;;;;;;;;;4.86;60.51;95707.91;5023690;28;20423;-64
2023/12/27 10:19:35;;;;;;;;;;;;;;;5.36;59.39;95712.19;5022382;28;19932;-63
2023/12/27 10:22:01;;;;;;;;;;;;;;;4.65;60.52;95714.16;5011356;28;19932;-64
2023/12/27 10:24:26;;;;;;;;;;;;;;;4.74;59.32;95715.13;5014733;28;20029;-64
2023/12/27 10:26:51;;;;;;;;;;;;;;;4.99;60.83;95695.25;5012608;28;19991;-64
2023/12/27 10:29:17;;;;;;;;;;;;;;;5.11;58.50;95688.06;5024945;28;20020;-64
2023/12/27 10:31:42;;;;;;;;;;;;;;;5.18;59.84;95680.41;5023795;28;20582;-64
2023/12/27 10:34:08;;;;;;;;;;;;;;;5.31;59.42;95667.72;5025779;28;19928;-64
2023/12/27 10:36:38;;;;;;;;;;;;;;;5.37;59.00;95665.50;5024300;28;19921;-64
2023/12/27 10:39:04;;;;;;;;;;;;;;;5.37;59.73;95661.03;5023220;28;19932;-64
2023/12/27 10:41:31;;;;;;;;;;;;;;;5.45;59.00;95652.41;5025597;28;19933;-64
2023/12/27 10:43:57;;;;;;;;;;;;;;;5.62;58.17;95645.53;5025551;28;20167;-64
2023/12/27 10:46:23;;;;;;;;;;;;;;;5.49;59.14;95645.84;5024948;28;19932;-64
2023/12/27 10:48:49;;;;;;;;;;;;;;;5.24;59.56;95650.81;5024264;28;20477;-64
2023/12/27 10:51:14;;;;;;;;;;;;;;;4.37;62.50;95658.63;5022979;28;19968;-64
2023/12/27 10:53:39;;;;;;;;;;;;;;;5.08;60.84;95643.47;5023881;28;20344;-64
2023/12/27 10:56:05;;;;;;;;;;;;;;;5.37;58.90;95654.94;5024524;28;20341;-64
2023/12/27 10:58:33;;;;;;;;;;;;;;;5.44;59.25;95651.56;5026661;28;19924;-64
2023/12/27 11:00:59;;;;;;;;;;;;;;;5.43;59.67;95638.50;5025717;28;20463;-64
2023/12/27 11:03:25;;;;;;;;;;;;;;;5.48;59.69;95636.28;5024521;28;19925;-64
2023/12/27 11:05:50;;;;;;;;;;;;;;;5.70;57.75;95640.34;5023483;28;19920;-64
2023/12/27 11:08:16;;;;;;;;;;;;;;;5.16;60.12;95633.03;5023173;28;19928;-64
2023/12/27 11:10:41;;;;;;;;;;;;;;;4.97;59.76;95639.97;5024988;28;19925;-64
2023/12/27 11:13:12;;;;;;;;;;;;;;;4.99;60.45;95636.41;5023983;28;19948;-64
2023/12/27 11:15:39;;;;;;;;;;;;;;;4.68;59.31;95637.41;5025319;28;19925;-64
2023/12/27 11:18:06;;;;;;;;;;;;;;;3.52;63.48;95638.75;5018205;28;19974;-63
2023/12/27 11:20:31;;;;;;;;;;;;;;;1.29;73.34;95649.66;5021568;28;20586;-64
2023/12/27 11:22:57;;;;;;;;;;;;;;;3.41;67.79;95629.97;5024827;28;19936;-64
2023/12/27 11:25:22;;;;;;;;;;;;;;;3.96;64.52;95624.47;5024210;28;20607;-64
2023/12/27 11:27:47;;;;;;;;;;;;;;;4.57;62.50;95638.38;5021195;28;19929;-64
2023/12/27 11:30:13;;;;;;;;;;;;;;;4.37;62.41;95624.38;5021995;28;20632;-63
2023/12/27 11:32:42;;;;;;;;;;;;;;;4.25;62.38;95626.31;5027511;28;20451;-64
2023/12/27 11:35:10;;;;;;;;;;;;;;;4.11;63.62;95623.09;5024186;28;19933;-64
2023/12/27 11:37:35;;;;;;;;;;;;;;;2.63;66.85;95618.06;5023013;28;20385;-64
2023/12/27 11:40:01;;;;;;;;;;;;;;;3.77;65.72;95608.50;5023984;28;20023;-64
2023/12/27 11:42:26;;;;;;;;;;;;;;;4.07;63.51;95601.47;5024965;28;19940;-63
2023/12/27 11:44:57;;;;;;;;;;;;;;;3.73;65.42;95596.56;5023173;28;19921;-64
2023/12/27 11:47:22;;;;;;;;;;;;;;;3.30;65.58;95609.00;5022517;28;20011;-63
2023/12/27 11:50:07;;;;;;;;;;;;;;;3.79;64.33;95605.72;5022695;28;20066;-64
2023/12/27 11:52:33;;;;;;;;;;;;;;;3.90;63.15;95595.06;5022471;28;19928;-63
2023/12/27 11:55:18;;;;;;;;;;;;;;;3.75;64.42;95601.69;5024429;28;19973;-64
2023/12/27 11:57:43;;;;;;;;;;;;;;;3.40;64.34;95606.41;5022669;28;19986;-64
2023/12/27 12:00:11;;;;;;;;;;;;;;;3.28;64.86;95601.25;5024465;28;19928;-64
2023/12/27 12:02:38;;;;;;;;;;;;;;;3.02;65.72;95588.53;5019103;28;20520;-64
2023/12/27 12:05:07;;;;;;;;;;;;;;;2.98;69.25;95581.03;5019695;28;20590;-64
2023/12/27 12:07:49;;;;;;;;;;;;;;;3.71;64.56;95605.56;5021517;28;20011;-64
2023/12/27 12:10:21;;;;;;;;;;;;;;;2.37;69.97;95588.69;5021700;28;20062;-64
2023/12/27 12:12:46;;;;;;;;;;;;;;;3.31;69.37;95589.63;5022591;28;20011;-63
2023/12/27 12:15:11;;;;;;;;;;;;;;;2.17;70.41;95596.44;5022552;28;20151;-63
2023/12/27 12:17:36;;;;;;;;;;;;;;;3.19;67.97;95591.50;5021105;28;19951;-64
2023/12/27 12:20:03;;;;;;;;;;;;;;;3.90;64.99;95581.91;5020172;28;20586;-64
2023/12/27 12:22:28;;;;;;;;;;;;;;;2.12;71.74;95574.97;5019552;28;19929;-64
2023/12/27 12:24:55;;;;;;;;;;;;;;;3.09;68.15;95570.41;5023225;28;20532;-64
2023/12/27 12:27:23;;;;;;;;;;;;;;;3.72;66.48;95573.84;5021412;28;20261;-64
2023/12/27 12:29:48;;;;;;;;;;;;;;;3.64;64.44;95578.94;5022071;28;19973;-64
2023/12/27 12:32:14;;;;;;;;;;;;;;;2.86;66.82;95565.34;5021903;28;19956;-65
2023/12/27 12:34:40;;;;;;;;;;;;;;;3.62;66.18;95544.00;5021408;28;20770;-65
2023/12/27 12:37:05;;;;;;;;;;;;;;;4.12;65.09;95531.72;5023123;28;19975;-65
2023/12/27 12:39:30;;;;;;;;;;;;;;;3.16;67.82;95529.47;5021065;28;19979;-65
2023/12/27 12:41:55;;;;;;;;;;;;;;;3.51;67.60;95523.91;5021898;28;19933;-65
2023/12/27 12:44:21;;;;;;;;;;;;;;;3.96;64.81;95496.22;5023644;28;19932;-64
2023/12/27 12:46:46;;;;;;;;;;;;;;;4.28;64.51;95497.72;5023018;28;20642;-64
2023/12/27 12:49:12;;;;;;;;;;;;;;;4.89;62.85;95501.84;5022448;28;19929;-64